createdAt,value
2022-09-12T00:01:43.493Z,1.50
2022-09-12T00:06:45.920Z,3.50
2022-09-12T00:11:49.991Z,16.65
2022-09-12T00:16:52.614Z,5.28
2022-09-12T00:21:55.298Z,7.75
2022-09-12T00:26:59.302Z,6.93
2022-09-12T00:32:02.193Z,8.40
2022-09-12T00:37:04.901Z,8.30
2022-09-12T00:42:10.548Z,10.57
2022-09-12T00:47:21.195Z,8.18
2022-09-12T00:52:29.722Z,9.27
2022-09-12T00:57:36.760Z,7.13
2022-09-12T01:02:39.219Z,10.10
2022-09-12T01:07:41.922Z,11.63
2022-09-12T01:12:46.551Z,11.05
2022-09-12T01:18:02.120Z,9.65
2022-09-12T01:23:30.780Z,9.10
2022-09-12T01:28:59.984Z,9.02
2022-09-12T01:34:16.658Z,11.43
2022-09-12T01:39:29.874Z,9.98
2022-09-12T01:44:40.221Z,10.65
2022-09-12T01:49:52.460Z,10.38
2022-09-12T01:55:03.082Z,11.32
2022-09-12T02:00:11.758Z,12.23
2022-09-12T02:05:19.552Z,10.90
2022-09-12T02:10:27.185Z,11.80
2022-09-12T02:15:38.318Z,10.43
2022-09-12T02:20:48.424Z,11.98
2022-09-12T02:25:56.319Z,12.98
2022-09-12T02:31:05.536Z,13.27
2022-09-12T02:36:16.902Z,10.93
2022-09-12T02:41:20.901Z,11.27
2022-09-12T02:46:27.345Z,12.93
2022-09-12T02:51:31.664Z,14.03
2022-09-12T02:56:34.251Z,13.57
2022-09-12T03:01:50.513Z,12.65
2022-09-12T03:07:09.999Z,12.45
2022-09-12T03:12:25.644Z,11.40
2022-09-12T03:17:38.133Z,11.13
2022-09-12T03:22:51.198Z,10.93
2022-09-12T03:27:59.191Z,11.00
2022-09-12T03:33:03.324Z,13.20
2022-09-12T03:38:07.746Z,11.77
2022-09-12T03:43:10.856Z,11.25
2022-09-12T03:48:13.305Z,11.52
2022-09-12T03:53:17.675Z,10.57
2022-09-12T03:58:19.926Z,9.73
2022-09-12T04:03:22.354Z,11.52
2022-09-12T04:08:26.066Z,9.27
2022-09-12T04:13:28.498Z,9.43
2022-09-12T04:18:31.363Z,12.55
2022-09-12T04:23:35.706Z,9.57
2022-09-12T04:28:39.424Z,10.88
2022-09-12T04:33:42.131Z,10.63
2022-09-12T04:38:47.763Z,10.07
2022-09-12T04:43:54.162Z,10.98
2022-09-12T04:48:57.293Z,11.10
2022-09-12T04:54:03.783Z,11.25
2022-09-12T04:59:06.627Z,12.50
2022-09-12T05:04:11.241Z,19.33
2022-09-12T05:09:15.556Z,11.60
2022-09-12T05:14:18.154Z,11.23
2022-09-12T05:19:21.335Z,10.27
2022-09-12T05:24:25.161Z,11.93
2022-09-12T05:29:27.702Z,12.48
2022-09-12T05:34:30.243Z,12.65
2022-09-12T05:39:34.187Z,11.70
2022-09-12T05:44:36.830Z,13.50
2022-09-12T05:49:39.093Z,14.52
2022-09-12T05:54:42.762Z,23.02
2022-09-12T05:59:45.037Z,12.70
2022-09-12T06:04:47.541Z,10.57
2022-09-12T06:09:51.375Z,13.13
2022-09-12T06:14:53.657Z,11.07
2022-09-12T06:19:56.049Z,14.18
2022-09-12T06:24:59.742Z,12.23
2022-09-12T06:30:02.261Z,13.00
2022-09-12T06:35:05.395Z,13.25
2022-09-12T06:40:12.940Z,12.05
2022-09-12T06:45:15.567Z,12.65
2022-09-12T06:50:18.107Z,14.63
2022-09-12T06:55:25.837Z,12.25
2022-09-12T07:00:30.405Z,12.60
2022-09-12T07:05:34.772Z,11.65
2022-09-12T07:10:38.959Z,14.23
2022-09-12T07:15:41.670Z,18.42
2022-09-12T07:20:44.333Z,12.07
2022-09-12T07:25:55.062Z,16.42
2022-09-12T07:30:58.198Z,16.60
2022-09-12T07:36:02.412Z,14.25
2022-09-12T07:41:13.843Z,14.18
2022-09-12T07:46:16.793Z,17.92
2022-09-12T07:51:20.165Z,13.90
2022-09-12T07:56:29.893Z,15.02
2022-09-12T08:01:33.994Z,18.77
2022-09-12T08:06:36.654Z,16.98
2022-09-12T08:11:40.975Z,16.25
2022-09-12T08:16:43.871Z,17.25
2022-09-12T08:21:46.418Z,17.77
2022-09-12T08:26:50.457Z,21.35
2022-09-12T08:31:57.041Z,19.65
2022-09-12T08:36:59.813Z,23.02
2022-09-12T08:42:05.473Z,18.60
2022-09-12T08:47:22.615Z,17.13
2022-09-12T08:57:32.306Z,22.88
2022-09-12T09:03:16.760Z,18.90
2022-09-12T09:08:42.680Z,18.80
2022-09-12T09:14:04.490Z,16.63
2022-09-12T09:19:15.496Z,17.90
2022-09-12T09:24:22.234Z,17.52
2022-09-12T09:29:32.383Z,14.50
2022-09-12T09:34:35.420Z,15.20
2022-09-12T09:39:50.527Z,13.50
2022-09-12T09:44:59.484Z,13.68
2022-09-12T09:50:01.964Z,15.52
2022-09-12T09:55:12.871Z,12.65
2022-09-12T10:00:29.610Z,14.35
2022-09-12T10:10:37.137Z,14.88
2022-09-12T10:15:57.257Z,13.18
2022-09-12T10:21:00.942Z,13.07
2022-09-12T10:26:08.730Z,10.98
2022-09-12T10:31:17.874Z,9.38
2022-09-12T10:36:21.177Z,10.65
2022-09-12T10:41:24.883Z,11.73
2022-09-12T10:46:32.239Z,10.05
2022-09-12T10:51:35.790Z,10.35
2022-09-12T10:56:45.309Z,10.98
2022-09-12T11:01:52.929Z,10.60
2022-09-12T11:07:15.950Z,11.75
2022-09-12T11:12:27.196Z,9.77
2022-09-12T11:17:44.760Z,10.45
2022-09-12T11:23:06.185Z,9.00
2022-09-12T11:28:29.161Z,10.38
2022-09-12T11:33:43.309Z,10.57
2022-09-12T11:39:01.985Z,11.25
2022-09-12T11:44:14.823Z,5.88
2022-09-12T11:49:32.299Z,6.15
2022-09-12T11:54:43.345Z,6.00
2022-09-12T11:59:52.215Z,6.72
2022-09-12T12:05:18.161Z,6.45
2022-09-12T12:10:39.851Z,5.18
2022-09-12T12:15:48.793Z,5.00
2022-09-12T12:20:55.658Z,5.97
2022-09-12T12:26:00.396Z,5.90
2022-09-12T12:31:03.596Z,6.03
2022-09-12T12:36:09.893Z,6.32
2022-09-12T12:41:43.734Z,6.60
2022-09-12T12:47:15.893Z,9.88
2022-09-12T12:52:20.773Z,7.10
2022-09-12T12:57:57.005Z,5.90
2022-09-12T13:08:08.877Z,6.78
2022-09-12T13:13:24.045Z,6.45
2022-09-12T13:18:30.729Z,7.18
2022-09-12T13:23:35.375Z,7.20
2022-09-12T13:28:38.378Z,6.55
2022-09-12T13:33:45.928Z,7.25
2022-09-12T13:39:06.167Z,8.55
2022-09-12T13:44:12.492Z,7.85
2022-09-12T13:49:22.341Z,8.27
2022-09-12T13:54:27.169Z,11.05
2022-09-12T13:59:38.937Z,5.60
2022-09-12T14:04:41.825Z,7.13
2022-09-12T14:09:53.202Z,6.20
2022-09-12T14:14:56.207Z,6.80
2022-09-12T14:20:00.938Z,6.53
2022-09-12T14:25:07.864Z,8.23
2022-09-12T14:30:23.124Z,6.85
2022-09-12T14:35:43.477Z,6.25
2022-09-12T14:41:12.150Z,6.18
2022-09-12T14:46:22.316Z,6.15
2022-09-12T14:51:28.557Z,5.20
2022-09-12T14:56:54.075Z,6.20
2022-09-12T15:02:21.986Z,7.75
2022-09-12T15:07:37.170Z,4.68
2022-09-12T15:12:44.439Z,5.50
2022-09-12T15:17:47.110Z,4.22
2022-09-12T15:22:50.220Z,4.63
2022-09-12T15:27:54.807Z,4.75
2022-09-12T15:32:57.728Z,5.47
2022-09-12T15:38:00.275Z,4.82
2022-09-12T15:43:17.511Z,6.28
2022-09-12T15:48:20.473Z,4.32
2022-09-12T15:53:23.845Z,5.90
2022-09-12T15:58:28.350Z,4.57
2022-09-12T16:03:33.906Z,4.22
2022-09-12T16:08:57.140Z,6.28
2022-09-12T16:14:01.244Z,4.47
2022-09-12T16:19:18.410Z,6.90
2022-09-12T16:24:21.620Z,6.03
2022-09-12T16:29:25.818Z,4.38
2022-09-12T16:34:28.801Z,5.20
2022-09-12T16:39:39.964Z,3.78
2022-09-12T16:44:44.063Z,4.20
2022-09-12T16:49:46.769Z,6.25
2022-09-12T16:54:49.334Z,6.05
2022-09-12T16:59:54.247Z,5.75
2022-09-12T17:05:10.194Z,7.10
2022-09-12T17:10:12.917Z,4.73
2022-09-12T17:15:17.341Z,5.88
2022-09-12T17:20:20.688Z,4.43
2022-09-12T17:25:23.341Z,7.65
2022-09-12T17:30:45.217Z,4.80
2022-09-12T17:35:47.798Z,4.65
2022-09-12T17:40:59.393Z,3.95
2022-09-12T17:46:10.933Z,4.72
2022-09-12T17:51:18.223Z,4.47
2022-09-12T17:56:20.775Z,5.07
2022-09-12T18:01:26.120Z,4.20
2022-09-12T18:06:52.668Z,8.25
2022-09-12T18:11:55.883Z,7.57
2022-09-12T18:17:05.513Z,4.45
2022-09-12T18:22:08.377Z,6.22
2022-09-12T18:27:16.884Z,4.53
2022-09-12T18:32:21.445Z,5.90
2022-09-12T18:37:30.478Z,5.55
2022-09-12T18:43:14.746Z,6.55
2022-09-12T18:48:25.696Z,5.63
2022-09-12T18:53:30.516Z,7.03
2022-09-12T18:58:33.005Z,6.82
2022-09-12T19:03:37.570Z,6.03
2022-09-12T19:08:40.367Z,10.48
2022-09-12T19:13:44.771Z,18.92
2022-09-12T19:19:00.165Z,18.13
2022-09-12T19:24:34.297Z,8.88
2022-09-12T19:29:36.882Z,6.47
2022-09-12T19:34:51.337Z,5.50
2022-09-12T19:40:12.077Z,5.10
2022-09-12T19:45:46.340Z,5.55
2022-09-12T19:50:53.228Z,4.82
2022-09-12T19:56:31.630Z,5.35
2022-09-12T20:01:44.708Z,6.28
2022-09-12T20:06:48.914Z,6.43
2022-09-12T20:11:56.567Z,5.35
2022-09-12T20:17:03.959Z,6.20
2022-09-12T20:22:08.077Z,5.25
2022-09-12T20:27:10.529Z,6.93
2022-09-12T20:32:13.131Z,6.38
2022-09-12T20:37:17.234Z,5.60
2022-09-12T20:42:19.559Z,6.70
2022-09-12T20:47:22.007Z,7.07
2022-09-12T20:52:25.754Z,8.25
2022-09-12T20:57:28.106Z,5.80
2022-09-12T21:02:30.528Z,6.47
2022-09-12T21:07:34.306Z,6.40
2022-09-12T21:12:36.611Z,4.90
2022-09-12T21:17:39.061Z,6.55
2022-09-12T21:22:42.994Z,7.40
2022-09-12T21:27:45.408Z,6.72
2022-09-12T21:32:47.653Z,11.32
2022-09-12T21:37:53.612Z,6.35
2022-09-12T21:42:56.323Z,6.40
2022-09-12T21:47:59.129Z,6.30
2022-09-12T21:53:03.055Z,5.57
2022-09-12T21:58:05.391Z,5.18
2022-09-12T22:03:07.999Z,4.97
2022-09-12T22:08:12.167Z,5.88
2022-09-12T22:13:14.514Z,5.30
2022-09-12T22:18:16.794Z,5.72
2022-09-12T22:23:24.635Z,7.38
2022-09-12T22:28:27.469Z,8.52
2022-09-12T22:33:29.844Z,6.78
2022-09-12T22:38:33.837Z,9.85
2022-09-12T22:43:37.081Z,7.90
2022-09-12T22:48:39.643Z,9.18
2022-09-12T22:53:43.658Z,7.43
2022-09-12T22:58:45.941Z,7.15
2022-09-12T23:03:48.304Z,9.98
2022-09-12T23:08:52.363Z,7.20
2022-09-12T23:13:54.701Z,7.65
2022-09-12T23:18:56.904Z,8.65
2022-09-12T23:24:00.644Z,7.93
2022-09-12T23:29:04.044Z,7.20
2022-09-12T23:34:06.594Z,7.95
2022-09-12T23:39:11.053Z,7.40
2022-09-12T23:44:13.382Z,10.23
2022-09-12T23:49:15.629Z,8.98
2022-09-12T23:54:19.431Z,7.32
2022-09-12T23:59:22.030Z,8.32
